DK-0004 weather

Brædstrup
Brædstrup, Central Jutland, Denmark

Public forecast

Using degrees Celsius for public forecast. Weather courtesy of forecast.io.

Closest aviation weather report (METAR) to Brædstrup

Closest report is Billund Airport, 20.9 nm (38.6 km) SW. Retrieved 2019/10/19 10:20 UTC (22 minutes ago):

EKBI 191020Z AUTO 18011KT 150V220 9999 BKN013/// 11/09 Q1003

Closest aviation forecast (TAF) to Brædstrup

Closest forecast is Billund Airport, 20.9 nm (38.6 km) SW. Retrieved 2019/10/19 06:31 UTC (4 hours ago):

TAF EKBI 190506Z 1906/2006 21012KT 9999 BKN018 TEMPO 1906/1909 4000 SHRA BKN012 SCT020CB TEMPO 1909/1918 BKN012 SCT020CB BECMG 1915/1918 15005KT TEMPO 1918/2006 2000 BR SCT020CB